Airfield :
LOGIN :

Register | Disclaimer

   EN    FR    IT 

 










Legend :    VFR   Marginal VFR   IFR   Intensive IFR   Very Intensive IFR
Visi :
Ceiling :
>= 8 km
>= 3000ft
5 to 8 km
1000 to 3000 ft
1500m to 5 km
500 to 1000 ft
800 to 1500m
200 to 500 ft
< 800m
< 200 ft
Symbols :   Thunderstorms  Fog  Heavy snow  Heavy precipitations  Wind > 20 kt
SIGMETs :     Misc.  Thunderstorms  Icing  Turbulence  Mountain Waves  Volcanic Ashes







- Airport Elevation : 1411 ft
- IATA code : SZG


LOWS - Salzburg

CURRENT METAR :
  • 251450Z VRB03KT 9999 FEW025 SCT035 BKN080 17/10 Q1023 NOSIG

EXPIRED METARs :
  • 251420Z 33005KT 250V020 9999 FEW025 SCT032 BKN075 17/10 Q1023 NOSIG
  • 251350Z 31004KT 260V010 9999 FEW025 SCT032 BKN065 16/10 Q1023 NOSIG
  • 251320Z VRB03KT 9999 FEW020 SCT035 BKN065 16/09 Q1023 NOSIG
  • 251250Z 31005KT 260V360 9999 FEW014 SCT025 BKN045 15/10 Q1023 NOSIG
  • 251220Z 23003KT 160V320 9999 FEW012 SCT022 BKN045 15/11 Q1023 NOSIG

TAF TAF LOWS
Valid from the 25 at 12:00 until the 26 at 12:00 UTC


251115Z 2512/2612 22005KT 9999 SCT040 BKN060 TX20/2612Z TN12/2603Z
TEMPO 2512/2515 29007KT -SHRA SCT025 BKN040
PROB30
TEMPO 2520/2606 -SHRA BKN035
BECMG 2607/2609 32006KT SCT045 BKN300
No reported NOTAMs for that airfield.



MET'MAP, your aeronautical weather chart ! - Copyright ORBIFLY December 2007 - Disclaimer

ORBIFLY MET'MAP TEAM :

Programming & Development : Alexandra Zaïnal
Concept & Development : Baudouin d'Aumeries
Co-Development & Prog : Marc-Olivier Méhu
Technical & hardware support : Manuel Goepfert

Contact : metmap@orbifly.com




SOURCES & CREDITS :

   NOAA